createdAt,value
2023-03-11T00:01:11.984Z,113.00
2023-03-11T00:03:40.416Z,127.40
2023-03-11T00:06:08.686Z,92.80
2023-03-11T00:08:38.368Z,118.20
2023-03-11T00:11:09.991Z,118.00
2023-03-11T00:13:41.488Z,102.40
2023-03-11T00:16:09.848Z,82.50
2023-03-11T00:18:40.194Z,67.30
2023-03-11T00:21:16.743Z,54.40
2023-03-11T00:23:45.687Z,110.90
2023-03-11T00:26:14.409Z,73.00
2023-03-11T00:28:43.000Z,105.10
2023-03-11T00:31:13.520Z,89.70
2023-03-11T00:34:01.810Z,110.10
2023-03-11T00:36:31.937Z,68.10
2023-03-11T00:39:02.637Z,77.90
2023-03-11T00:41:31.546Z,57.80
2023-03-11T00:44:00.042Z,54.10
2023-03-11T00:46:29.937Z,53.90
2023-03-11T00:48:58.732Z,45.30
2023-03-11T00:51:27.069Z,62.30
2023-03-11T00:53:56.180Z,49.40
2023-03-11T00:56:24.434Z,43.70
2023-03-11T00:58:52.669Z,41.80
2023-03-11T01:01:21.331Z,47.40
2023-03-11T01:03:50.108Z,47.50
2023-03-11T01:06:22.530Z,42.90
2023-03-11T01:08:51.362Z,46.50
2023-03-11T01:11:23.029Z,42.90
2023-03-11T01:13:51.689Z,44.20
2023-03-11T01:16:21.525Z,46.50
2023-03-11T01:18:51.923Z,45.00
2023-03-11T01:21:20.706Z,44.70
2023-03-11T01:23:48.887Z,41.70
2023-03-11T01:26:17.135Z,46.50
2023-03-11T01:28:45.410Z,47.70
2023-03-11T01:31:14.124Z,45.00
2023-03-11T01:33:42.692Z,46.10
2023-03-11T01:36:16.024Z,43.50
2023-03-11T01:38:44.905Z,45.00
2023-03-11T01:41:13.287Z,46.70
2023-03-11T01:43:46.169Z,42.10
2023-03-11T01:46:28.457Z,43.30
2023-03-11T01:48:59.281Z,42.70
2023-03-11T01:51:37.607Z,42.10
2023-03-11T01:54:13.251Z,39.10
2023-03-11T01:56:42.732Z,40.30
2023-03-11T01:59:16.240Z,44.70
2023-03-11T02:02:05.305Z,41.50
2023-03-11T02:04:35.437Z,43.90
2023-03-11T02:07:04.821Z,42.40
2023-03-11T02:09:34.376Z,46.80
2023-03-11T02:12:03.478Z,45.00
2023-03-11T02:14:32.058Z,49.60
2023-03-11T02:17:04.161Z,45.20
2023-03-11T02:20:07.559Z,43.10
2023-03-11T02:22:36.262Z,44.90
2023-03-11T02:25:11.897Z,41.10
2023-03-11T02:27:41.883Z,47.10
2023-03-11T02:30:12.400Z,43.40
2023-03-11T02:32:43.639Z,42.90
2023-03-11T02:35:11.834Z,39.10
2023-03-11T02:37:48.638Z,38.00
2023-03-11T02:40:23.263Z,40.70
2023-03-11T02:42:55.618Z,42.20
2023-03-11T02:45:25.464Z,43.60
2023-03-11T02:47:55.540Z,39.80
2023-03-11T02:50:24.140Z,39.60
2023-03-11T02:52:52.705Z,36.40
2023-03-11T02:55:23.596Z,36.60
2023-03-11T02:57:56.288Z,36.40
2023-03-11T03:00:25.148Z,37.30
2023-03-11T03:03:01.861Z,38.40
2023-03-11T03:05:30.522Z,38.30
2023-03-11T03:07:59.857Z,39.00
2023-03-11T03:10:28.140Z,39.20
2023-03-11T03:13:03.190Z,38.00
2023-03-11T03:15:33.625Z,53.50
2023-03-11T03:18:03.533Z,55.30
2023-03-11T03:20:35.995Z,82.90
2023-03-11T03:23:05.307Z,70.60
2023-03-11T03:25:36.872Z,70.70
2023-03-11T03:28:07.073Z,62.00
2023-03-11T03:30:37.721Z,65.60
2023-03-11T03:33:07.674Z,43.50
2023-03-11T03:35:41.773Z,67.50
2023-03-11T03:38:15.070Z,57.10
2023-03-11T03:40:47.962Z,37.90
2023-03-11T03:43:18.226Z,38.10
2023-03-11T03:46:02.063Z,43.10
2023-03-11T03:48:33.868Z,46.30
2023-03-11T03:51:05.817Z,48.00
2023-03-11T03:53:34.995Z,45.80
2023-03-11T03:56:09.048Z,54.70
2023-03-11T03:58:39.035Z,54.00
2023-03-11T04:01:08.139Z,50.60
2023-03-11T04:03:39.162Z,50.50
2023-03-11T04:06:14.830Z,48.90
2023-03-11T04:08:43.754Z,60.10
2023-03-11T04:11:12.754Z,45.30
2023-03-11T04:13:44.881Z,50.00
2023-03-11T04:16:20.162Z,43.40
2023-03-11T04:18:50.221Z,38.60
2023-03-11T04:21:19.576Z,40.40
2023-03-11T04:23:53.437Z,38.60
2023-03-11T04:26:23.212Z,37.60
2023-03-11T04:28:51.762Z,35.30
2023-03-11T04:31:20.112Z,35.60
2023-03-11T04:33:49.919Z,36.00
2023-03-11T04:36:21.863Z,33.50
2023-03-11T04:38:50.396Z,35.90
2023-03-11T04:41:20.849Z,38.30
2023-03-11T04:43:49.237Z,33.40
2023-03-11T04:46:17.964Z,33.90
2023-03-11T04:48:46.872Z,33.20
2023-03-11T04:51:15.478Z,36.10
2023-03-11T04:53:43.947Z,35.90
2023-03-11T04:56:12.981Z,35.80
2023-03-11T04:58:41.567Z,33.50
2023-03-11T05:01:09.964Z,30.50
2023-03-11T05:03:41.565Z,31.40
2023-03-11T05:06:12.892Z,31.80
2023-03-11T05:08:41.489Z,29.90
2023-03-11T05:11:10.794Z,29.90
2023-03-11T05:13:41.530Z,27.90
2023-03-11T05:16:10.337Z,25.60
2023-03-11T05:18:38.838Z,26.70
2023-03-11T05:21:09.729Z,28.80
2023-03-11T05:23:41.424Z,24.30
2023-03-11T05:26:09.589Z,27.30
2023-03-11T05:28:39.393Z,27.50
2023-03-11T05:31:10.368Z,26.20
2023-03-11T05:33:46.415Z,28.70
2023-03-11T05:36:15.832Z,26.60
2023-03-11T05:38:45.164Z,25.20
2023-03-11T05:41:15.335Z,28.80
2023-03-11T05:43:44.322Z,32.20
2023-03-11T05:46:15.563Z,32.90
2023-03-11T05:48:44.167Z,35.00
2023-03-11T05:51:40.557Z,35.40
2023-03-11T05:54:15.342Z,35.80
2023-03-11T05:56:46.958Z,34.20
2023-03-11T05:59:16.598Z,35.00
2023-03-11T06:01:47.419Z,37.10
2023-03-11T06:04:16.793Z,33.30
2023-03-11T06:06:48.450Z,35.90
2023-03-11T06:09:19.002Z,33.00
2023-03-11T06:11:47.270Z,35.50
2023-03-11T06:14:16.319Z,34.70
2023-03-11T06:16:46.318Z,33.60
2023-03-11T06:19:27.780Z,35.80
2023-03-11T06:24:51.008Z,35.80
2023-03-11T06:27:24.276Z,33.80
2023-03-11T06:29:56.768Z,32.30
2023-03-11T06:32:31.813Z,33.60
2023-03-11T06:35:00.458Z,31.60
2023-03-11T06:37:28.800Z,31.50
2023-03-11T06:39:57.789Z,30.40
2023-03-11T06:42:27.069Z,29.10
2023-03-11T06:45:07.433Z,26.20
2023-03-11T06:47:37.638Z,25.00
2023-03-11T06:50:09.453Z,22.30
2023-03-11T06:52:39.202Z,20.00
2023-03-11T06:55:09.148Z,18.10
2023-03-11T06:57:45.966Z,18.50
2023-03-11T07:00:15.595Z,18.20
2023-03-11T07:02:49.562Z,16.50
2023-03-11T07:05:23.787Z,17.70
2023-03-11T07:07:55.940Z,17.50
2023-03-11T07:10:27.930Z,14.20
2023-03-11T07:12:57.389Z,14.50
2023-03-11T07:15:30.332Z,14.50
2023-03-11T07:18:06.275Z,16.20
2023-03-11T07:20:37.239Z,13.10
2023-03-11T07:23:05.524Z,14.30
2023-03-11T07:25:33.723Z,13.90
2023-03-11T07:28:02.195Z,13.00
2023-03-11T07:30:30.854Z,15.00
2023-03-11T07:33:00.595Z,13.30
2023-03-11T07:35:29.115Z,12.80
2023-03-11T07:38:01.787Z,11.60
2023-03-11T07:40:30.276Z,11.40
2023-03-11T07:42:58.497Z,11.30
2023-03-11T07:45:27.186Z,11.60
2023-03-11T07:47:55.814Z,11.20
2023-03-11T07:50:28.691Z,10.30
2023-03-11T07:52:58.504Z,11.30
2023-03-11T07:55:27.361Z,9.60
2023-03-11T07:57:55.570Z,11.10
2023-03-11T08:00:23.792Z,9.50
2023-03-11T08:02:52.549Z,12.60
2023-03-11T08:05:21.387Z,12.90
2023-03-11T08:07:53.078Z,15.00
2023-03-11T08:10:21.933Z,25.70
2023-03-11T08:12:51.448Z,31.90
2023-03-11T08:15:19.634Z,44.80
2023-03-11T08:17:49.601Z,49.80
2023-03-11T08:20:18.290Z,61.10
2023-03-11T08:22:57.920Z,64.80
2023-03-11T08:25:27.162Z,70.90
2023-03-11T08:27:55.765Z,61.30
2023-03-11T08:30:24.476Z,62.80
2023-03-11T08:32:53.729Z,64.70
2023-03-11T08:35:22.187Z,62.00
2023-03-11T08:38:03.934Z,54.20
2023-03-11T08:40:34.623Z,53.80
2023-03-11T08:43:04.402Z,49.00
2023-03-11T08:45:33.697Z,42.90
2023-03-11T08:48:07.060Z,39.90
2023-03-11T08:50:47.342Z,37.10
2023-03-11T08:53:22.890Z,36.40
2023-03-11T08:55:51.946Z,33.20
2023-03-11T08:58:20.744Z,32.10
2023-03-11T09:00:49.117Z,33.60
2023-03-11T09:03:17.669Z,33.20
2023-03-11T09:05:46.044Z,33.90
2023-03-11T09:08:15.071Z,34.00
2023-03-11T09:10:43.690Z,33.90
2023-03-11T09:13:12.495Z,33.30
2023-03-11T09:15:41.777Z,33.90
2023-03-11T09:18:20.012Z,33.20
2023-03-11T09:20:52.827Z,33.90
2023-03-11T09:23:22.612Z,34.90
2023-03-11T09:25:50.891Z,29.40
2023-03-11T09:28:19.121Z,29.00
2023-03-11T09:30:51.293Z,28.20
2023-03-11T09:33:27.542Z,23.70
2023-03-11T09:35:58.714Z,20.80
2023-03-11T09:38:27.597Z,16.60
2023-03-11T09:41:19.442Z,15.40
2023-03-11T09:44:12.010Z,10.80
2023-03-11T09:46:44.788Z,9.60
2023-03-11T09:49:34.649Z,7.30
2023-03-11T09:52:11.592Z,6.40
2023-03-11T09:54:46.022Z,6.10
2023-03-11T09:57:18.433Z,6.50
2023-03-11T09:59:46.840Z,6.40
2023-03-11T10:02:17.794Z,7.40
2023-03-11T10:05:21.943Z,6.90
2023-03-11T10:07:59.868Z,6.90
2023-03-11T10:13:32.546Z,6.20
2023-03-11T10:16:38.901Z,5.60
2023-03-11T10:19:11.998Z,5.70
2023-03-11T10:22:04.983Z,5.80
2023-03-11T10:24:46.574Z,5.60
2023-03-11T10:27:23.104Z,7.00
2023-03-11T10:30:21.025Z,5.40
2023-03-11T10:33:01.123Z,19.60
2023-03-11T10:35:41.075Z,16.20
2023-03-11T10:38:16.259Z,6.90
2023-03-11T10:40:47.178Z,6.50
2023-03-11T10:43:29.289Z,5.90
2023-03-11T10:45:59.697Z,6.30
2023-03-11T10:48:34.727Z,5.30
2023-03-11T10:51:27.071Z,5.30
2023-03-11T10:54:00.413Z,6.50
2023-03-11T10:56:34.235Z,5.80
2023-03-11T10:59:04.742Z,6.30
2023-03-11T11:01:33.443Z,6.80
2023-03-11T11:04:01.879Z,7.70
2023-03-11T11:06:37.314Z,6.60
2023-03-11T11:09:26.950Z,6.80
2023-03-11T11:12:16.144Z,6.90
2023-03-11T11:14:50.970Z,7.90
2023-03-11T11:17:40.689Z,6.90
2023-03-11T11:20:16.827Z,6.50
2023-03-11T11:22:50.925Z,6.90
2023-03-11T11:25:47.425Z,5.50
2023-03-11T11:28:19.932Z,7.40
2023-03-11T11:31:06.397Z,6.60
2023-03-11T11:33:52.345Z,6.20
2023-03-11T11:36:21.830Z,6.70
2023-03-11T11:38:53.295Z,7.00
2023-03-11T11:41:26.364Z,8.40
2023-03-11T11:44:03.947Z,7.00
2023-03-11T11:46:46.731Z,6.70
2023-03-11T11:49:26.622Z,8.40
2023-03-11T11:52:09.375Z,7.70
2023-03-11T11:54:48.270Z,7.00
2023-03-11T11:57:17.774Z,8.20
2023-03-11T11:59:46.184Z,8.80
2023-03-11T12:02:52.736Z,7.80
2023-03-11T12:05:26.578Z,9.40
2023-03-11T12:08:09.623Z,7.90
2023-03-11T12:10:45.647Z,8.30
2023-03-11T12:13:34.212Z,7.90
2023-03-11T12:16:24.273Z,8.40
2023-03-11T12:19:13.201Z,10.80
2023-03-11T12:22:12.415Z,7.90
2023-03-11T12:24:46.601Z,8.50
2023-03-11T12:27:25.824Z,8.10
2023-03-11T12:30:00.284Z,7.70
2023-03-11T12:32:35.397Z,8.00
2023-03-11T12:35:10.960Z,8.40
2023-03-11T12:37:41.404Z,9.00
2023-03-11T12:40:44.376Z,8.50
2023-03-11T12:43:35.696Z,8.80
2023-03-11T12:46:05.396Z,7.80
2023-03-11T12:48:36.944Z,9.50
2023-03-11T12:51:06.295Z,8.20
2023-03-11T12:53:59.437Z,8.60
2023-03-11T12:59:15.583Z,8.80
2023-03-11T13:02:17.764Z,9.80
2023-03-11T13:05:21.339Z,11.40
2023-03-11T13:08:24.869Z,9.70
2023-03-11T13:10:55.309Z,11.20
2023-03-11T13:13:36.598Z,11.90
2023-03-11T13:16:15.298Z,10.60
2023-03-11T13:18:48.262Z,10.60
2023-03-11T13:21:54.372Z,12.00
2023-03-11T13:24:22.866Z,12.60
2023-03-11T13:27:05.006Z,11.90
2023-03-11T13:29:47.985Z,11.80
2023-03-11T13:33:07.521Z,10.40
2023-03-11T13:36:20.689Z,11.80
2023-03-11T13:39:02.427Z,11.70
2023-03-11T13:41:33.354Z,14.60
2023-03-11T13:44:20.528Z,11.30
2023-03-11T13:46:50.325Z,12.40
2023-03-11T13:49:24.462Z,10.00
2023-03-11T13:51:54.865Z,12.20
2023-03-11T13:54:48.103Z,10.10
2023-03-11T13:57:23.710Z,10.60
2023-03-11T13:59:54.662Z,12.30
2023-03-11T14:02:27.279Z,11.10
2023-03-11T14:05:03.582Z,11.10
2023-03-11T14:07:35.426Z,12.10
2023-03-11T14:10:30.770Z,12.20
2023-03-11T14:13:17.388Z,12.00
2023-03-11T14:15:53.750Z,11.80
2023-03-11T14:18:39.783Z,11.30
2023-03-11T14:21:19.741Z,12.00
2023-03-11T14:23:51.627Z,12.00
2023-03-11T14:26:28.121Z,14.20
2023-03-11T14:28:59.751Z,10.80
2023-03-11T14:31:33.492Z,10.50
2023-03-11T14:34:23.490Z,10.90
2023-03-11T14:36:54.666Z,12.50
2023-03-11T14:39:26.616Z,12.50
2023-03-11T14:42:02.161Z,12.90
2023-03-11T14:44:30.944Z,13.00
2023-03-11T14:47:11.480Z,11.80
2023-03-11T14:49:39.805Z,10.40
2023-03-11T14:52:15.610Z,12.50
2023-03-11T14:54:43.933Z,12.90
2023-03-11T14:57:23.019Z,12.50
2023-03-11T14:59:51.411Z,14.90
2023-03-11T15:02:29.002Z,13.30
2023-03-11T15:04:59.370Z,12.80
2023-03-11T15:07:28.621Z,12.20
2023-03-11T15:10:00.452Z,11.10
2023-03-11T15:12:32.089Z,12.20
2023-03-11T15:15:01.508Z,10.90
2023-03-11T15:17:39.523Z,11.60
2023-03-11T15:20:33.795Z,10.10
2023-03-11T15:23:06.177Z,14.30
2023-03-11T15:25:38.620Z,11.90
2023-03-11T15:28:28.436Z,14.10
2023-03-11T15:31:22.523Z,13.50
2023-03-11T15:33:53.975Z,14.50
2023-03-11T15:36:42.616Z,17.90
2023-03-11T15:39:33.150Z,14.50
2023-03-11T15:42:03.776Z,10.30
2023-03-11T15:44:53.950Z,11.20
2023-03-11T15:47:26.156Z,11.80
2023-03-11T15:49:54.391Z,11.90
2023-03-11T15:52:24.343Z,11.80
2023-03-11T15:54:56.117Z,9.90
2023-03-11T16:04:57.727Z,12.80
2023-03-11T16:07:38.720Z,9.80
2023-03-11T16:10:37.788Z,10.30
2023-03-11T16:13:13.538Z,11.70
2023-03-11T16:15:43.706Z,13.60
2023-03-11T16:18:12.164Z,12.50
2023-03-11T16:20:47.769Z,11.10
2023-03-11T16:23:26.725Z,11.50
2023-03-11T16:26:01.651Z,12.40
2023-03-11T16:28:30.496Z,11.50
2023-03-11T16:30:58.858Z,15.60
2023-03-11T16:33:27.854Z,12.10
2023-03-11T16:35:58.119Z,13.10
2023-03-11T16:38:48.509Z,14.90
2023-03-11T16:41:17.759Z,12.40
2023-03-11T16:43:46.863Z,12.20
2023-03-11T16:46:17.806Z,10.60
2023-03-11T16:48:46.690Z,13.90
2023-03-11T16:51:15.907Z,13.70
2023-03-11T16:53:44.707Z,14.10
2023-03-11T16:56:15.848Z,13.60
2023-03-11T16:58:48.620Z,14.30
2023-03-11T17:01:19.481Z,12.00
2023-03-11T17:03:50.213Z,14.40
2023-03-11T17:06:19.659Z,11.80
2023-03-11T17:08:57.165Z,12.10
2023-03-11T17:11:28.759Z,15.20
2023-03-11T17:14:10.136Z,16.40
2023-03-11T17:16:45.663Z,12.50
2023-03-11T17:19:39.771Z,16.60
2023-03-11T17:22:08.170Z,11.40
2023-03-11T17:24:37.194Z,12.30
2023-03-11T17:27:10.217Z,11.10
2023-03-11T17:30:36.893Z,10.30
2023-03-11T17:33:07.730Z,10.80
2023-03-11T17:35:41.226Z,12.10
2023-03-11T17:38:39.093Z,11.00
2023-03-11T17:41:12.824Z,10.80
2023-03-11T17:43:41.587Z,9.40
2023-03-11T17:46:14.694Z,9.50
2023-03-11T17:48:46.069Z,11.90
2023-03-11T17:51:19.673Z,10.50
2023-03-11T17:53:50.363Z,12.20
2023-03-11T17:56:21.897Z,8.70
2023-03-11T17:58:54.451Z,11.60
2023-03-11T18:01:25.284Z,10.60
2023-03-11T18:03:54.383Z,9.50
2023-03-11T18:06:23.347Z,9.10
2023-03-11T18:08:55.419Z,9.00
2023-03-11T18:11:26.759Z,11.60
2023-03-11T18:13:56.543Z,9.70
2023-03-11T18:16:27.879Z,12.00
2023-03-11T18:18:57.492Z,14.80
2023-03-11T18:21:28.057Z,11.70
2023-03-11T18:24:00.291Z,13.00
2023-03-11T18:26:31.542Z,12.40
2023-03-11T18:29:00.884Z,13.40
2023-03-11T18:31:35.455Z,14.50
2023-03-11T18:34:06.487Z,12.40
2023-03-11T18:36:37.008Z,12.70
2023-03-11T18:39:11.641Z,26.20
2023-03-11T18:42:53.111Z,15.50
2023-03-11T18:45:23.084Z,18.50
2023-03-11T18:47:51.793Z,14.60
2023-03-11T18:50:22.611Z,16.10
2023-03-11T18:52:52.315Z,14.40
2023-03-11T18:55:21.076Z,13.70
2023-03-11T18:57:54.422Z,24.60
2023-03-11T19:00:24.865Z,13.00
2023-03-11T19:03:25.526Z,14.00
2023-03-11T19:05:54.201Z,12.70
2023-03-11T19:08:22.644Z,12.00
2023-03-11T19:10:51.633Z,13.60
2023-03-11T19:13:20.884Z,12.90
2023-03-11T19:15:54.091Z,14.60
2023-03-11T19:18:26.978Z,13.80
2023-03-11T19:20:57.931Z,15.00
2023-03-11T19:23:27.316Z,14.60
2023-03-11T19:26:03.079Z,12.00
2023-03-11T19:28:32.925Z,13.00
2023-03-11T19:31:01.806Z,12.20
2023-03-11T19:33:31.660Z,13.30
2023-03-11T19:36:28.018Z,13.60
2023-03-11T19:38:57.797Z,11.50
2023-03-11T19:49:04.918Z,13.70
2023-03-11T19:52:00.887Z,15.50
2023-03-11T19:54:29.883Z,14.10
2023-03-11T19:56:58.972Z,12.00
2023-03-11T19:59:27.855Z,11.80
2023-03-11T20:01:56.151Z,14.90
2023-03-11T20:04:24.900Z,15.50
2023-03-11T20:06:53.169Z,11.90
2023-03-11T20:09:24.716Z,13.70
2023-03-11T20:11:53.226Z,14.10
2023-03-11T20:14:27.625Z,12.10
2023-03-11T20:16:56.998Z,13.80
2023-03-11T20:19:27.028Z,13.10
2023-03-11T20:21:56.586Z,13.70
2023-03-11T20:24:27.472Z,12.40
2023-03-11T20:26:56.302Z,15.00
2023-03-11T20:29:24.948Z,14.20
2023-03-11T20:31:53.761Z,13.40
2023-03-11T20:34:22.378Z,13.30
2023-03-11T20:37:22.185Z,14.00
2023-03-11T20:39:50.717Z,12.80
2023-03-11T20:42:19.988Z,12.20
2023-03-11T20:44:52.777Z,14.40
2023-03-11T20:47:22.170Z,13.30
2023-03-11T20:49:51.140Z,12.70
2023-03-11T20:52:20.765Z,15.30
2023-03-11T20:57:21.020Z,12.90
2023-03-11T20:59:49.297Z,14.30
2023-03-11T21:02:21.130Z,13.50
2023-03-11T21:04:49.520Z,13.10
2023-03-11T21:07:21.014Z,12.30
2023-03-11T21:09:54.702Z,13.40
2023-03-11T21:12:26.455Z,11.40
2023-03-11T21:14:55.479Z,12.50
2023-03-11T21:17:23.677Z,11.80
2023-03-11T21:19:51.925Z,12.70
2023-03-11T21:22:21.821Z,12.60
2023-03-11T21:24:54.165Z,12.70
2023-03-11T21:27:27.883Z,13.70
2023-03-11T21:29:59.007Z,13.60
2023-03-11T21:32:28.199Z,11.60
2023-03-11T21:34:59.055Z,12.30
2023-03-11T21:37:28.880Z,12.30
2023-03-11T21:39:57.511Z,13.50
2023-03-11T21:42:25.813Z,12.10
2023-03-11T21:44:57.726Z,11.30
2023-03-11T21:47:29.976Z,13.20
2023-03-11T21:49:59.792Z,12.60
2023-03-11T21:52:28.435Z,12.00
2023-03-11T21:54:58.187Z,12.00
2023-03-11T21:57:26.463Z,10.50
2023-03-11T21:59:54.922Z,13.30
2023-03-11T22:02:24.229Z,9.90
2023-03-11T22:04:52.605Z,10.70
2023-03-11T22:07:21.027Z,11.20
2023-03-11T22:09:49.815Z,13.00
2023-03-11T22:12:20.165Z,11.10
2023-03-11T22:14:49.584Z,11.20
2023-03-11T22:17:17.959Z,11.20
2023-03-11T22:19:46.929Z,11.90
2023-03-11T22:22:15.200Z,12.30
2023-03-11T22:24:43.464Z,10.90
2023-03-11T22:27:11.810Z,11.20
2023-03-11T22:29:41.000Z,12.80
2023-03-11T22:32:10.853Z,13.80
2023-03-11T22:34:39.490Z,13.10
2023-03-11T22:37:08.087Z,15.30
2023-03-11T22:39:37.159Z,14.30
2023-03-11T22:42:05.572Z,13.40
2023-03-11T22:44:33.844Z,12.70
2023-03-11T22:47:02.227Z,13.00
2023-03-11T22:49:30.723Z,16.40
2023-03-11T22:51:58.944Z,13.70
2023-03-11T22:54:27.265Z,12.60
2023-03-11T22:56:55.478Z,14.20
2023-03-11T22:59:28.612Z,14.10
2023-03-11T23:01:57.021Z,14.50
2023-03-11T23:04:25.509Z,13.40
2023-03-11T23:06:54.696Z,12.90
2023-03-11T23:09:23.048Z,16.60
2023-03-11T23:11:52.215Z,13.30
2023-03-11T23:14:25.665Z,15.40
2023-03-11T23:17:01.970Z,15.10
2023-03-11T23:22:00.231Z,13.90
2023-03-11T23:24:32.669Z,12.80
2023-03-11T23:27:04.908Z,12.30
2023-03-11T23:29:33.347Z,11.80
2023-03-11T23:32:03.866Z,13.70
2023-03-11T23:34:33.025Z,12.60
2023-03-11T23:37:02.251Z,16.30
2023-03-11T23:42:26.230Z,12.70
2023-03-11T23:44:57.733Z,12.40
2023-03-11T23:47:26.513Z,11.70
2023-03-11T23:50:00.681Z,12.30
2023-03-11T23:52:29.898Z,13.30
2023-03-11T23:54:58.112Z,13.80
2023-03-11T23:57:26.390Z,13.80
2023-03-11T23:59:54.713Z,14.00
